| Temperature (°F) | Max | Average | Min |
|---|---|---|---|
| Max Temperature | 79 | 60.87 | 41 |
| Avg Temperature | 68.56 | 47.74 | 34.4 |
| Min Temperature | 48 | 33.35 | 19 |
| Dew Point (°F) | Max | Average | Min |
|---|---|---|---|
| Dew Point | 68 | 33.11 | 7 |
| Precipitation (in) | Max | Average | Min | Sum |
|---|---|---|---|---|
| Precipitation | 0.15 | 0.01 | 0.00 | 0.35 |
| Snowdepth | 0.00 | 0.00 | 0.00 | 0.00 |
| Wind (mph) | Max | Average | Min |
|---|---|---|---|
| Wind | 30 | 7.77 | 0 |
| Gust Wind | 46 | 5.35 | 0 |
| Sea Level Pressure (in) | Max | Average | Min |
|---|---|---|---|
| Sea Level Pressure | 30.05 | 29.59 | 29.04 |
| Date | Temperature (°F) | Dew Point (°F) | Humidity (%) | Wind Speed (mph) | Pressure (in) | Precipitation (in) | ||||||||||
|---|---|---|---|---|---|---|---|---|---|---|---|---|---|---|---|---|
| Max | Avg | Min | Max | Avg | Min | Max | Avg | Min | Max | Avg | Min | Max | Avg | Min | ||
| 1/31/2022 | 66 | 54.0 | 47 | 57 | 52.7 | 40 | 100 | 95.4 | 83 | 17 | 6.2 | 0 | 29.5 | 29.4 | 29.3 | 0.02 |
| 1/30/2022 | 59 | 50.7 | 40 | 44 | 33.8 | 24 | 92 | 56.8 | 25 | 16 | 7.0 | 0 | 29.6 | 29.6 | 29.5 | 0.00 |
| 1/29/2022 | 69 | 44.8 | 25 | 28 | 23.1 | 19 | 89 | 50.3 | 17 | 12 | 4.4 | 0 | 29.9 | 29.8 | 29.6 | 0.00 |
| 1/28/2022 | 67 | 46.7 | 24 | 36 | 27.4 | 21 | 70 | 50.0 | 25 | 22 | 12.3 | 0 | 30.0 | 29.9 | 29.7 | 0.00 |
| 1/27/2022 | 59 | 51.4 | 31 | 41 | 38.0 | 32 | 93 | 61.8 | 48 | 16 | 3.7 | 0 | 29.7 | 29.7 | 29.6 | 0.00 |
| 1/26/2022 | 60 | 46.9 | 33 | 45 | 36.9 | 28 | 90 | 69.9 | 47 | 15 | 8.6 | 3 | 29.8 | 29.7 | 29.6 | 0.00 |
| 1/25/2022 | 55 | 48.7 | 42 | 47 | 45.8 | 44 | 100 | 89.8 | 77 | 12 | 6.5 | 0 | 29.6 | 29.5 | 29.3 | 0.10 |
| 1/24/2022 | 53 | 49.2 | 43 | 49 | 45.7 | 38 | 100 | 88.3 | 57 | 9 | 2.1 | 0 | 29.5 | 29.4 | 29.3 | 0.01 |
| 1/23/2022 | 53 | 50.1 | 41 | 34 | 29.4 | 23 | 71 | 46.7 | 31 | 8 | 2.6 | 0 | 29.8 | 29.6 | 29.5 | 0.00 |
| 1/22/2022 | 58 | 36.9 | 43 | 30 | 19.9 | 15 | 85 | 56.0 | 24 | 12 | 4.3 | 0 | 29.9 | 29.8 | 29.8 | 0.00 |
| 1/21/2022 | 54 | 35.1 | 19 | 20 | 12.4 | 7 | 78 | 41.8 | 23 | 17 | 9.9 | 0 | 29.9 | 29.8 | 29.7 | 0.01 |
| 1/20/2022 | 49 | 34.7 | 25 | 28 | 17.8 | 11 | 61 | 50.7 | 38 | 26 | 19.5 | 12 | 29.9 | 29.8 | 29.6 | 0.00 |
| 1/19/2022 | 42 | 63.6 | 31 | 61 | 54.7 | 28 | 97 | 75.8 | 40 | 30 | 7.7 | 0 | 29.6 | 29.4 | 29.3 | 0.00 |
| 1/18/2022 | 79 | 54.7 | 43 | 55 | 42.7 | 27 | 92 | 67.1 | 34 | 22 | 9.3 | 0 | 29.5 | 29.4 | 29.3 | 0.00 |
| 1/17/2022 | 75 | 46.5 | 29 | 31 | 24.9 | 20 | 67 | 47.3 | 16 | 13 | 3.5 | 0 | 29.6 | 29.5 | 29.5 | 0.00 |
| 1/16/2022 | 70 | 43.3 | 23 | 25 | 20.4 | 14 | 72 | 44.0 | 17 | 17 | 5.6 | 0 | 29.6 | 29.6 | 29.5 | 0.00 |
| 1/15/2022 | 62 | 48.0 | 29 | 34 | 21.4 | 15 | 50 | 35.8 | 25 | 30 | 20.0 | 14 | 29.7 | 29.6 | 29.3 | 0.00 |
| 1/14/2022 | 65 | 54.1 | 41 | 43 | 33.8 | 30 | 89 | 55.4 | 19 | 21 | 6.2 | 0 | 29.5 | 29.3 | 29.2 | 0.00 |
| 1/13/2022 | 75 | 50.0 | 31 | 37 | 32.8 | 29 | 96 | 60.5 | 18 | 9 | 2.4 | 0 | 29.7 | 29.6 | 29.5 | 0.00 |
| 1/12/2022 | 75 | 48.3 | 31 | 40 | 37.1 | 33 | 92 | 68.1 | 38 | 8 | 3.1 | 0 | 29.8 | 29.7 | 29.6 | 0.00 |
| 1/11/2022 | 63 | 44.3 | 34 | 37 | 28.0 | 21 | 76 | 55.0 | 31 | 13 | 5.8 | 0 | 30.0 | 29.9 | 29.8 | 0.00 |
| 1/10/2022 | 51 | 48.2 | 37 | 31 | 24.9 | 17 | 53 | 41.8 | 21 | 22 | 16.0 | 6 | 30.1 | 30.0 | 29.9 | 0.00 |
| 1/9/2022 | 58 | 56.4 | 41 | 57 | 45.6 | 31 | 96 | 69.3 | 47 | 21 | 12.6 | 0 | 29.9 | 29.7 | 29.5 | 0.05 |
| 1/8/2022 | 65 | 53.7 | 48 | 62 | 52.3 | 39 | 100 | 95.5 | 90 | 10 | 5.0 | 0 | 29.5 | 29.4 | 29.4 | 0.15 |
| 1/7/2022 | 64 | 36.1 | 41 | 40 | 28.2 | 16 | 97 | 74.6 | 52 | 13 | 5.1 | 0 | 29.7 | 29.6 | 29.5 | 0.00 |
| 1/6/2022 | 41 | 42.9 | 27 | 40 | 28.0 | 17 | 96 | 60.2 | 34 | 23 | 11.7 | 0 | 29.6 | 29.5 | 29.3 | 0.00 |
| 1/5/2022 | 57 | 53.1 | 31 | 44 | 37.5 | 32 | 100 | 63.3 | 23 | 7 | 3.7 | 0 | 29.4 | 29.3 | 29.3 | 0.00 |
| 1/4/2022 | 73 | 47.9 | 33 | 43 | 34.2 | 23 | 89 | 62.3 | 35 | 18 | 7.5 | 0 | 29.7 | 29.5 | 29.4 | 0.00 |
| 1/3/2022 | 67 | 36.6 | 25 | 25 | 20.4 | 15 | 88 | 58.7 | 21 | 7 | 1.6 | 0 | 30.0 | 29.8 | 29.7 | 0.00 |
| 1/2/2022 | 56 | 34.4 | 21 | 23 | 17.4 | 10 | 84 | 51.8 | 31 | 28 | 15.9 | 0 | 29.9 | 29.8 | 29.5 | 0.01 |
| 1/1/2022 | 47 | 68.6 | 25 | 68 | 59.2 | 33 | 93 | 73.4 | 45 | 29 | 11.0 | 0 | 29.4 | 29.1 | 29.0 | 0.00 |